sensor_id;sensor_type;location;lat;lon;timestamp;P1;durP1;ratioP1;P2;durP2;ratioP2
15451;SDS011;7827;53.594;9.938;2022-12-16T00:00:14;37.53;;;25.03;;
15451;SDS011;7827;53.594;9.938;2022-12-16T00:02:42;39.73;;;26.77;;
15451;SDS011;7827;53.594;9.938;2022-12-16T00:05:11;41.70;;;25.67;;
15451;SDS011;7827;53.594;9.938;2022-12-16T00:07:40;44.00;;;26.60;;
15451;SDS011;7827;53.594;9.938;2022-12-16T00:10:08;42.13;;;25.93;;
15451;SDS011;7827;53.594;9.938;2022-12-16T00:12:37;37.83;;;24.97;;
15451;SDS011;7827;53.594;9.938;2022-12-16T00:15:06;42.73;;;25.93;;
15451;SDS011;7827;53.594;9.938;2022-12-16T00:17:35;39.80;;;26.00;;
15451;SDS011;7827;53.594;9.938;2022-12-16T00:20:05;39.23;;;26.23;;
15451;SDS011;7827;53.594;9.938;2022-12-16T00:22:35;39.93;;;26.20;;
15451;SDS011;7827;53.594;9.938;2022-12-16T00:25:05;43.83;;;26.17;;
15451;SDS011;7827;53.594;9.938;2022-12-16T00:27:34;42.43;;;25.73;;
15451;SDS011;7827;53.594;9.938;2022-12-16T00:30:03;38.00;;;24.60;;
15451;SDS011;7827;53.594;9.938;2022-12-16T00:32:32;42.33;;;27.53;;
15451;SDS011;7827;53.594;9.938;2022-12-16T00:35:00;40.30;;;25.67;;
15451;SDS011;7827;53.594;9.938;2022-12-16T00:37:29;39.10;;;25.27;;
15451;SDS011;7827;53.594;9.938;2022-12-16T00:39:58;43.70;;;27.07;;
15451;SDS011;7827;53.594;9.938;2022-12-16T00:42:27;43.43;;;27.23;;
15451;SDS011;7827;53.594;9.938;2022-12-16T00:44:56;41.10;;;26.97;;
15451;SDS011;7827;53.594;9.938;2022-12-16T00:47:24;42.40;;;28.23;;
15451;SDS011;7827;53.594;9.938;2022-12-16T00:49:52;44.30;;;27.60;;
15451;SDS011;7827;53.594;9.938;2022-12-16T00:52:20;42.77;;;27.50;;
15451;SDS011;7827;53.594;9.938;2022-12-16T00:54:49;45.83;;;27.70;;
15451;SDS011;7827;53.594;9.938;2022-12-16T00:57:17;43.97;;;27.63;;
15451;SDS011;7827;53.594;9.938;2022-12-16T00:59:47;41.53;;;26.97;;
15451;SDS011;7827;53.594;9.938;2022-12-16T01:02:15;39.73;;;26.43;;
15451;SDS011;7827;53.594;9.938;2022-12-16T01:04:44;39.87;;;26.97;;
15451;SDS011;7827;53.594;9.938;2022-12-16T01:07:12;43.53;;;27.33;;
15451;SDS011;7827;53.594;9.938;2022-12-16T01:09:41;43.77;;;27.07;;
15451;SDS011;7827;53.594;9.938;2022-12-16T01:12:09;41.10;;;26.93;;
15451;SDS011;7827;53.594;9.938;2022-12-16T01:14:37;41.77;;;27.63;;
15451;SDS011;7827;53.594;9.938;2022-12-16T01:17:07;43.63;;;28.00;;
15451;SDS011;7827;53.594;9.938;2022-12-16T01:19:35;40.33;;;27.17;;
15451;SDS011;7827;53.594;9.938;2022-12-16T01:22:03;40.30;;;26.07;;
15451;SDS011;7827;53.594;9.938;2022-12-16T01:24:31;42.73;;;27.17;;
15451;SDS011;7827;53.594;9.938;2022-12-16T01:27:00;43.10;;;26.93;;
15451;SDS011;7827;53.594;9.938;2022-12-16T01:29:28;42.83;;;26.37;;
15451;SDS011;7827;53.594;9.938;2022-12-16T01:31:56;51.63;;;28.43;;
15451;SDS011;7827;53.594;9.938;2022-12-16T01:34:26;42.23;;;26.97;;
15451;SDS011;7827;53.594;9.938;2022-12-16T01:36:54;41.50;;;25.97;;
15451;SDS011;7827;53.594;9.938;2022-12-16T01:39:22;40.17;;;26.30;;
15451;SDS011;7827;53.594;9.938;2022-12-16T01:41:52;45.63;;;27.50;;
15451;SDS011;7827;53.594;9.938;2022-12-16T01:44:21;48.53;;;27.27;;
15451;SDS011;7827;53.594;9.938;2022-12-16T01:46:54;41.97;;;26.27;;
15451;SDS011;7827;53.594;9.938;2022-12-16T01:49:33;44.57;;;26.97;;
15451;SDS011;7827;53.594;9.938;2022-12-16T01:52:08;40.13;;;26.00;;
15451;SDS011;7827;53.594;9.938;2022-12-16T01:54:43;43.73;;;27.10;;
15451;SDS011;7827;53.594;9.938;2022-12-16T01:57:17;40.20;;;26.67;;
15451;SDS011;7827;53.594;9.938;2022-12-16T01:59:52;43.80;;;26.90;;
15451;SDS011;7827;53.594;9.938;2022-12-16T02:02:23;39.07;;;25.83;;
15451;SDS011;7827;53.594;9.938;2022-12-16T02:04:54;45.43;;;27.87;;
15451;SDS011;7827;53.594;9.938;2022-12-16T02:07:40;39.63;;;26.00;;
15451;SDS011;7827;53.594;9.938;2022-12-16T02:10:08;40.37;;;26.00;;
15451;SDS011;7827;53.594;9.938;2022-12-16T02:12:39;38.63;;;27.17;;
15451;SDS011;7827;53.594;9.938;2022-12-16T02:15:22;39.03;;;25.20;;
15451;SDS011;7827;53.594;9.938;2022-12-16T02:18:01;41.03;;;25.73;;
15451;SDS011;7827;53.594;9.938;2022-12-16T02:20:50;41.03;;;26.67;;
15451;SDS011;7827;53.594;9.938;2022-12-16T02:27:30;38.13;;;25.03;;
15451;SDS011;7827;53.594;9.938;2022-12-16T02:30:36;38.93;;;25.50;;
15451;SDS011;7827;53.594;9.938;2022-12-16T02:33:25;41.13;;;25.27;;
15451;SDS011;7827;53.594;9.938;2022-12-16T02:36:19;42.33;;;25.77;;
15451;SDS011;7827;53.594;9.938;2022-12-16T02:38:58;39.33;;;25.23;;
15451;SDS011;7827;53.594;9.938;2022-12-16T02:41:36;37.63;;;24.77;;
15451;SDS011;7827;53.594;9.938;2022-12-16T02:44:10;40.80;;;25.63;;
15451;SDS011;7827;53.594;9.938;2022-12-16T02:46:42;43.07;;;26.20;;
15451;SDS011;7827;53.594;9.938;2022-12-16T02:52:21;44.80;;;25.43;;
15451;SDS011;7827;53.594;9.938;2022-12-16T02:54:53;39.60;;;25.93;;
15451;SDS011;7827;53.594;9.938;2022-12-16T02:57:43;40.10;;;25.87;;
15451;SDS011;7827;53.594;9.938;2022-12-16T03:00:27;39.07;;;24.53;;
15451;SDS011;7827;53.594;9.938;2022-12-16T03:03:08;39.47;;;25.50;;
15451;SDS011;7827;53.594;9.938;2022-12-16T03:05:46;40.43;;;24.77;;
15451;SDS011;7827;53.594;9.938;2022-12-16T03:08:19;39.40;;;25.67;;
15451;SDS011;7827;53.594;9.938;2022-12-16T03:10:55;42.03;;;25.67;;
15451;SDS011;7827;53.594;9.938;2022-12-16T03:13:28;39.23;;;26.17;;
15451;SDS011;7827;53.594;9.938;2022-12-16T03:16:04;41.70;;;26.27;;
15451;SDS011;7827;53.594;9.938;2022-12-16T03:18:37;47.97;;;26.90;;
15451;SDS011;7827;53.594;9.938;2022-12-16T03:21:10;44.00;;;26.33;;
15451;SDS011;7827;53.594;9.938;2022-12-16T03:23:42;44.20;;;26.30;;
15451;SDS011;7827;53.594;9.938;2022-12-16T03:26:20;46.80;;;26.57;;
15451;SDS011;7827;53.594;9.938;2022-12-16T03:28:54;38.80;;;25.83;;
15451;SDS011;7827;53.594;9.938;2022-12-16T03:31:32;38.57;;;24.37;;
15451;SDS011;7827;53.594;9.938;2022-12-16T03:34:10;37.97;;;24.90;;
15451;SDS011;7827;53.594;9.938;2022-12-16T03:36:48;42.00;;;26.30;;
15451;SDS011;7827;53.594;9.938;2022-12-16T03:39:24;38.77;;;26.37;;
15451;SDS011;7827;53.594;9.938;2022-12-16T03:41:53;39.00;;;25.27;;
15451;SDS011;7827;53.594;9.938;2022-12-16T03:44:23;42.90;;;26.63;;
15451;SDS011;7827;53.594;9.938;2022-12-16T03:46:52;40.87;;;26.23;;
15451;SDS011;7827;53.594;9.938;2022-12-16T03:49:22;40.40;;;26.17;;
15451;SDS011;7827;53.594;9.938;2022-12-16T03:51:50;43.63;;;26.67;;
15451;SDS011;7827;53.594;9.938;2022-12-16T03:54:20;41.63;;;26.70;;
15451;SDS011;7827;53.594;9.938;2022-12-16T03:56:49;46.43;;;26.93;;
15451;SDS011;7827;53.594;9.938;2022-12-16T03:59:17;38.67;;;24.27;;
15451;SDS011;7827;53.594;9.938;2022-12-16T04:01:46;40.30;;;25.87;;
15451;SDS011;7827;53.594;9.938;2022-12-16T04:04:15;40.60;;;26.43;;
15451;SDS011;7827;53.594;9.938;2022-12-16T04:06:45;46.33;;;26.60;;
15451;SDS011;7827;53.594;9.938;2022-12-16T04:09:34;45.20;;;26.67;;
15451;SDS011;7827;53.594;9.938;2022-12-16T04:12:02;43.60;;;26.13;;
15451;SDS011;7827;53.594;9.938;2022-12-16T04:14:49;39.30;;;25.40;;
15451;SDS011;7827;53.594;9.938;2022-12-16T04:17:34;44.73;;;25.90;;
15451;SDS011;7827;53.594;9.938;2022-12-16T04:20:20;39.50;;;24.83;;
15451;SDS011;7827;53.594;9.938;2022-12-16T04:23:15;44.03;;;26.83;;
15451;SDS011;7827;53.594;9.938;2022-12-16T04:26:01;39.93;;;24.53;;
15451;SDS011;7827;53.594;9.938;2022-12-16T04:28:29;41.50;;;25.77;;
15451;SDS011;7827;53.594;9.938;2022-12-16T04:30:58;42.87;;;25.30;;
15451;SDS011;7827;53.594;9.938;2022-12-16T04:33:26;40.93;;;26.27;;
15451;SDS011;7827;53.594;9.938;2022-12-16T04:36:13;46.73;;;26.03;;
15451;SDS011;7827;53.594;9.938;2022-12-16T04:39:00;40.77;;;25.63;;
15451;SDS011;7827;53.594;9.938;2022-12-16T04:41:46;39.87;;;25.43;;
15451;SDS011;7827;53.594;9.938;2022-12-16T04:44:36;45.10;;;26.03;;
15451;SDS011;7827;53.594;9.938;2022-12-16T04:47:22;41.67;;;26.10;;
15451;SDS011;7827;53.594;9.938;2022-12-16T04:50:08;39.60;;;25.83;;
15451;SDS011;7827;53.594;9.938;2022-12-16T04:52:54;44.97;;;25.70;;
15451;SDS011;7827;53.594;9.938;2022-12-16T04:55:41;43.93;;;27.27;;
15451;SDS011;7827;53.594;9.938;2022-12-16T04:58:30;49.37;;;27.23;;
15451;SDS011;7827;53.594;9.938;2022-12-16T05:01:16;42.13;;;26.33;;
15451;SDS011;7827;53.594;9.938;2022-12-16T05:04:02;43.87;;;26.83;;
15451;SDS011;7827;53.594;9.938;2022-12-16T05:06:48;45.63;;;27.57;;
15451;SDS011;7827;53.594;9.938;2022-12-16T05:09:34;46.23;;;25.50;;
15451;SDS011;7827;53.594;9.938;2022-12-16T05:12:21;42.37;;;25.33;;
15451;SDS011;7827;53.594;9.938;2022-12-16T05:15:07;42.60;;;26.73;;
15451;SDS011;7827;53.594;9.938;2022-12-16T05:17:53;40.57;;;25.60;;
15451;SDS011;7827;53.594;9.938;2022-12-16T05:20:39;44.03;;;26.53;;
15451;SDS011;7827;53.594;9.938;2022-12-16T05:23:21;43.97;;;25.60;;
15451;SDS011;7827;53.594;9.938;2022-12-16T05:26:07;43.20;;;25.40;;
15451;SDS011;7827;53.594;9.938;2022-12-16T05:28:54;41.23;;;25.80;;
15451;SDS011;7827;53.594;9.938;2022-12-16T05:31:40;42.40;;;25.83;;
15451;SDS011;7827;53.594;9.938;2022-12-16T05:34:26;44.60;;;26.30;;
15451;SDS011;7827;53.594;9.938;2022-12-16T05:37:12;45.87;;;28.43;;
15451;SDS011;7827;53.594;9.938;2022-12-16T05:39:58;42.60;;;27.57;;
15451;SDS011;7827;53.594;9.938;2022-12-16T05:42:45;44.33;;;26.00;;
15451;SDS011;7827;53.594;9.938;2022-12-16T05:45:33;46.63;;;26.43;;
15451;SDS011;7827;53.594;9.938;2022-12-16T05:48:19;52.03;;;26.70;;
15451;SDS011;7827;53.594;9.938;2022-12-16T05:51:12;40.83;;;24.67;;
15451;SDS011;7827;53.594;9.938;2022-12-16T05:53:58;57.67;;;27.87;;
15451;SDS011;7827;53.594;9.938;2022-12-16T05:56:44;46.63;;;25.93;;
15451;SDS011;7827;53.594;9.938;2022-12-16T05:59:45;44.13;;;27.03;;
15451;SDS011;7827;53.594;9.938;2022-12-16T06:02:38;50.13;;;26.97;;
15451;SDS011;7827;53.594;9.938;2022-12-16T06:05:24;50.93;;;26.97;;
15451;SDS011;7827;53.594;9.938;2022-12-16T06:08:10;44.33;;;25.60;;
15451;SDS011;7827;53.594;9.938;2022-12-16T06:10:56;49.30;;;25.93;;
15451;SDS011;7827;53.594;9.938;2022-12-16T06:13:42;66.93;;;27.27;;
15451;SDS011;7827;53.594;9.938;2022-12-16T06:16:28;92.83;;;28.37;;
15451;SDS011;7827;53.594;9.938;2022-12-16T06:19:15;72.23;;;28.13;;
15451;SDS011;7827;53.594;9.938;2022-12-16T06:22:01;70.90;;;27.13;;
15451;SDS011;7827;53.594;9.938;2022-12-16T06:24:47;49.60;;;25.83;;
15451;SDS011;7827;53.594;9.938;2022-12-16T06:27:33;46.97;;;26.23;;
15451;SDS011;7827;53.594;9.938;2022-12-16T06:30:19;53.27;;;27.53;;
15451;SDS011;7827;53.594;9.938;2022-12-16T06:33:05;51.77;;;26.83;;
15451;SDS011;7827;53.594;9.938;2022-12-16T06:35:52;44.77;;;26.60;;
15451;SDS011;7827;53.594;9.938;2022-12-16T06:38:38;48.37;;;26.73;;
15451;SDS011;7827;53.594;9.938;2022-12-16T06:41:24;43.97;;;26.83;;
15451;SDS011;7827;53.594;9.938;2022-12-16T06:44:10;47.57;;;26.73;;
15451;SDS011;7827;53.594;9.938;2022-12-16T06:46:56;45.27;;;27.10;;
15451;SDS011;7827;53.594;9.938;2022-12-16T06:49:42;43.93;;;27.23;;
15451;SDS011;7827;53.594;9.938;2022-12-16T06:52:29;43.47;;;26.67;;
15451;SDS011;7827;53.594;9.938;2022-12-16T06:55:15;48.87;;;27.43;;
15451;SDS011;7827;53.594;9.938;2022-12-16T06:58:01;44.17;;;26.07;;
15451;SDS011;7827;53.594;9.938;2022-12-16T07:00:47;48.97;;;28.10;;
15451;SDS011;7827;53.594;9.938;2022-12-16T07:03:33;47.23;;;28.47;;
15451;SDS011;7827;53.594;9.938;2022-12-16T07:06:19;51.30;;;28.33;;
15451;SDS011;7827;53.594;9.938;2022-12-16T07:09:11;52.07;;;28.50;;
15451;SDS011;7827;53.594;9.938;2022-12-16T07:11:57;47.33;;;27.97;;
15451;SDS011;7827;53.594;9.938;2022-12-16T07:14:43;46.67;;;28.33;;
15451;SDS011;7827;53.594;9.938;2022-12-16T07:17:29;55.33;;;30.67;;
15451;SDS011;7827;53.594;9.938;2022-12-16T07:20:15;49.53;;;28.73;;
15451;SDS011;7827;53.594;9.938;2022-12-16T07:23:01;49.53;;;28.97;;
15451;SDS011;7827;53.594;9.938;2022-12-16T07:25:49;49.57;;;30.60;;
15451;SDS011;7827;53.594;9.938;2022-12-16T07:28:35;49.97;;;31.20;;
15451;SDS011;7827;53.594;9.938;2022-12-16T07:31:20;52.80;;;30.23;;
15451;SDS011;7827;53.594;9.938;2022-12-16T07:34:07;50.90;;;29.63;;
15451;SDS011;7827;53.594;9.938;2022-12-16T07:36:53;53.23;;;28.67;;
15451;SDS011;7827;53.594;9.938;2022-12-16T07:39:39;49.93;;;29.33;;
15451;SDS011;7827;53.594;9.938;2022-12-16T07:42:26;47.43;;;29.90;;
15451;SDS011;7827;53.594;9.938;2022-12-16T07:45:11;53.83;;;31.00;;
15451;SDS011;7827;53.594;9.938;2022-12-16T07:47:57;51.33;;;31.13;;
15451;SDS011;7827;53.594;9.938;2022-12-16T07:50:43;54.80;;;30.97;;
15451;SDS011;7827;53.594;9.938;2022-12-16T07:53:29;58.90;;;29.93;;
15451;SDS011;7827;53.594;9.938;2022-12-16T07:56:15;52.63;;;31.17;;
15451;SDS011;7827;53.594;9.938;2022-12-16T07:59:03;52.40;;;30.10;;
15451;SDS011;7827;53.594;9.938;2022-12-16T08:01:49;51.10;;;28.83;;
15451;SDS011;7827;53.594;9.938;2022-12-16T08:04:35;58.70;;;32.40;;
15451;SDS011;7827;53.594;9.938;2022-12-16T08:07:21;55.30;;;31.23;;
15451;SDS011;7827;53.594;9.938;2022-12-16T08:10:07;55.27;;;32.50;;
15451;SDS011;7827;53.594;9.938;2022-12-16T08:12:57;51.50;;;31.13;;
15451;SDS011;7827;53.594;9.938;2022-12-16T08:15:59;54.03;;;31.20;;
15451;SDS011;7827;53.594;9.938;2022-12-16T08:18:44;53.47;;;31.53;;
15451;SDS011;7827;53.594;9.938;2022-12-16T08:21:36;54.57;;;31.43;;
15451;SDS011;7827;53.594;9.938;2022-12-16T08:24:22;55.93;;;31.50;;
15451;SDS011;7827;53.594;9.938;2022-12-16T08:27:16;53.00;;;30.80;;
15451;SDS011;7827;53.594;9.938;2022-12-16T08:30:03;51.00;;;29.90;;
15451;SDS011;7827;53.594;9.938;2022-12-16T08:32:51;55.23;;;30.93;;
15451;SDS011;7827;53.594;9.938;2022-12-16T08:35:44;55.90;;;31.80;;
15451;SDS011;7827;53.594;9.938;2022-12-16T08:38:30;53.67;;;31.53;;
15451;SDS011;7827;53.594;9.938;2022-12-16T08:41:16;54.70;;;31.50;;
15451;SDS011;7827;53.594;9.938;2022-12-16T08:44:02;56.47;;;31.27;;
15451;SDS011;7827;53.594;9.938;2022-12-16T08:46:48;58.30;;;33.90;;
15451;SDS011;7827;53.594;9.938;2022-12-16T08:49:35;56.33;;;31.50;;
15451;SDS011;7827;53.594;9.938;2022-12-16T08:52:28;54.67;;;33.13;;
15451;SDS011;7827;53.594;9.938;2022-12-16T08:55:14;57.37;;;31.00;;
15451;SDS011;7827;53.594;9.938;2022-12-16T08:58:06;52.80;;;32.47;;
15451;SDS011;7827;53.594;9.938;2022-12-16T09:00:52;52.67;;;32.23;;
15451;SDS011;7827;53.594;9.938;2022-12-16T09:03:38;54.77;;;32.60;;
15451;SDS011;7827;53.594;9.938;2022-12-16T09:06:25;58.00;;;33.07;;
15451;SDS011;7827;53.594;9.938;2022-12-16T09:09:11;56.90;;;32.17;;
15451;SDS011;7827;53.594;9.938;2022-12-16T09:11:57;57.80;;;33.13;;
15451;SDS011;7827;53.594;9.938;2022-12-16T09:14:44;60.17;;;35.00;;
15451;SDS011;7827;53.594;9.938;2022-12-16T09:17:30;52.60;;;32.93;;
15451;SDS011;7827;53.594;9.938;2022-12-16T09:20:16;54.90;;;33.53;;
15451;SDS011;7827;53.594;9.938;2022-12-16T09:23:04;54.40;;;33.77;;
15451;SDS011;7827;53.594;9.938;2022-12-16T09:25:50;54.60;;;33.37;;
15451;SDS011;7827;53.594;9.938;2022-12-16T09:28:36;53.50;;;33.23;;
15451;SDS011;7827;53.594;9.938;2022-12-16T09:31:22;52.73;;;34.23;;
15451;SDS011;7827;53.594;9.938;2022-12-16T09:34:08;52.33;;;33.10;;
15451;SDS011;7827;53.594;9.938;2022-12-16T09:36:54;53.50;;;34.87;;
15451;SDS011;7827;53.594;9.938;2022-12-16T09:39:41;54.13;;;32.90;;
15451;SDS011;7827;53.594;9.938;2022-12-16T09:42:32;58.43;;;33.73;;
15451;SDS011;7827;53.594;9.938;2022-12-16T09:45:35;58.57;;;33.37;;
15451;SDS011;7827;53.594;9.938;2022-12-16T09:48:32;52.37;;;32.47;;
15451;SDS011;7827;53.594;9.938;2022-12-16T09:51:32;54.83;;;34.00;;
15451;SDS011;7827;53.594;9.938;2022-12-16T09:54:22;55.00;;;34.97;;
15451;SDS011;7827;53.594;9.938;2022-12-16T09:57:14;55.13;;;32.40;;
15451;SDS011;7827;53.594;9.938;2022-12-16T10:00:01;55.57;;;34.33;;
15451;SDS011;7827;53.594;9.938;2022-12-16T10:02:50;54.87;;;33.63;;
15451;SDS011;7827;53.594;9.938;2022-12-16T10:05:38;60.40;;;33.60;;
15451;SDS011;7827;53.594;9.938;2022-12-16T10:08:37;51.03;;;33.13;;
15451;SDS011;7827;53.594;9.938;2022-12-16T10:11:35;58.23;;;34.33;;
15451;SDS011;7827;53.594;9.938;2022-12-16T10:14:35;57.70;;;34.67;;
15451;SDS011;7827;53.594;9.938;2022-12-16T10:17:28;57.50;;;33.47;;
15451;SDS011;7827;53.594;9.938;2022-12-16T10:20:16;53.93;;;33.53;;
15451;SDS011;7827;53.594;9.938;2022-12-16T10:23:14;57.33;;;34.97;;
15451;SDS011;7827;53.594;9.938;2022-12-16T10:26:10;57.27;;;34.83;;
15451;SDS011;7827;53.594;9.938;2022-12-16T10:29:09;58.80;;;33.93;;
15451;SDS011;7827;53.594;9.938;2022-12-16T10:32:07;57.70;;;34.77;;
15451;SDS011;7827;53.594;9.938;2022-12-16T10:35:02;50.40;;;34.00;;
15451;SDS011;7827;53.594;9.938;2022-12-16T10:38:08;58.10;;;33.10;;
15451;SDS011;7827;53.594;9.938;2022-12-16T10:41:04;53.90;;;33.63;;
15451;SDS011;7827;53.594;9.938;2022-12-16T10:43:52;53.97;;;34.50;;
15451;SDS011;7827;53.594;9.938;2022-12-16T10:46:41;56.30;;;34.23;;
15451;SDS011;7827;53.594;9.938;2022-12-16T10:49:28;56.80;;;33.57;;
15451;SDS011;7827;53.594;9.938;2022-12-16T10:52:20;53.93;;;35.13;;
15451;SDS011;7827;53.594;9.938;2022-12-16T10:55:11;54.10;;;34.23;;
15451;SDS011;7827;53.594;9.938;2022-12-16T10:58:14;53.07;;;32.97;;
15451;SDS011;7827;53.594;9.938;2022-12-16T11:04:29;51.73;;;32.27;;
15451;SDS011;7827;53.594;9.938;2022-12-16T11:07:21;49.70;;;32.53;;
15451;SDS011;7827;53.594;9.938;2022-12-16T11:10:23;56.30;;;33.60;;
15451;SDS011;7827;53.594;9.938;2022-12-16T11:13:18;55.57;;;32.80;;
15451;SDS011;7827;53.594;9.938;2022-12-16T11:16:12;54.37;;;33.87;;
15451;SDS011;7827;53.594;9.938;2022-12-16T11:19:01;53.07;;;34.93;;
15451;SDS011;7827;53.594;9.938;2022-12-16T11:21:50;52.10;;;32.60;;
15451;SDS011;7827;53.594;9.938;2022-12-16T11:25:02;55.40;;;33.53;;
15451;SDS011;7827;53.594;9.938;2022-12-16T11:28:00;50.30;;;31.70;;
15451;SDS011;7827;53.594;9.938;2022-12-16T11:30:49;54.87;;;34.13;;
15451;SDS011;7827;53.594;9.938;2022-12-16T11:33:39;62.17;;;34.30;;
15451;SDS011;7827;53.594;9.938;2022-12-16T11:36:29;55.80;;;32.40;;
15451;SDS011;7827;53.594;9.938;2022-12-16T11:39:20;50.90;;;31.93;;
15451;SDS011;7827;53.594;9.938;2022-12-16T11:42:11;48.40;;;32.40;;
15451;SDS011;7827;53.594;9.938;2022-12-16T11:45:06;55.80;;;33.43;;
15451;SDS011;7827;53.594;9.938;2022-12-16T11:48:00;50.30;;;31.93;;
15451;SDS011;7827;53.594;9.938;2022-12-16T11:50:56;53.30;;;32.20;;
15451;SDS011;7827;53.594;9.938;2022-12-16T11:53:45;56.10;;;31.23;;
15451;SDS011;7827;53.594;9.938;2022-12-16T11:56:38;52.17;;;32.70;;
15451;SDS011;7827;53.594;9.938;2022-12-16T11:59:30;48.80;;;32.07;;
15451;SDS011;7827;53.594;9.938;2022-12-16T12:02:22;54.27;;;33.93;;
15451;SDS011;7827;53.594;9.938;2022-12-16T12:05:16;52.83;;;34.73;;
15451;SDS011;7827;53.594;9.938;2022-12-16T12:08:19;56.23;;;33.83;;
15451;SDS011;7827;53.594;9.938;2022-12-16T12:11:16;50.63;;;32.17;;
15451;SDS011;7827;53.594;9.938;2022-12-16T12:14:14;57.33;;;33.77;;
15451;SDS011;7827;53.594;9.938;2022-12-16T12:17:19;52.63;;;32.10;;
15451;SDS011;7827;53.594;9.938;2022-12-16T12:20:23;50.23;;;33.33;;
15451;SDS011;7827;53.594;9.938;2022-12-16T12:23:32;60.40;;;35.07;;
15451;SDS011;7827;53.594;9.938;2022-12-16T12:26:29;56.03;;;34.70;;
15451;SDS011;7827;53.594;9.938;2022-12-16T12:29:21;54.50;;;33.80;;
15451;SDS011;7827;53.594;9.938;2022-12-16T12:32:18;54.40;;;32.50;;
15451;SDS011;7827;53.594;9.938;2022-12-16T12:35:19;57.63;;;35.23;;
15451;SDS011;7827;53.594;9.938;2022-12-16T12:38:22;61.27;;;34.60;;
15451;SDS011;7827;53.594;9.938;2022-12-16T12:41:15;59.37;;;34.20;;
15451;SDS011;7827;53.594;9.938;2022-12-16T12:44:10;54.97;;;34.77;;
15451;SDS011;7827;53.594;9.938;2022-12-16T12:47:14;62.27;;;34.27;;
15451;SDS011;7827;53.594;9.938;2022-12-16T12:50:04;53.50;;;34.60;;
15451;SDS011;7827;53.594;9.938;2022-12-16T12:53:04;58.23;;;34.20;;
15451;SDS011;7827;53.594;9.938;2022-12-16T12:56:24;55.60;;;35.17;;
15451;SDS011;7827;53.594;9.938;2022-12-16T12:59:29;57.07;;;35.17;;
15451;SDS011;7827;53.594;9.938;2022-12-16T13:02:38;61.00;;;36.27;;
15451;SDS011;7827;53.594;9.938;2022-12-16T13:05:32;61.70;;;36.10;;
15451;SDS011;7827;53.594;9.938;2022-12-16T13:08:29;60.30;;;36.17;;
15451;SDS011;7827;53.594;9.938;2022-12-16T13:12:18;59.03;;;35.40;;
15451;SDS011;7827;53.594;9.938;2022-12-16T13:15:18;55.13;;;34.90;;
15451;SDS011;7827;53.594;9.938;2022-12-16T13:18:19;63.53;;;36.13;;
15451;SDS011;7827;53.594;9.938;2022-12-16T13:24:36;55.13;;;35.67;;
15451;SDS011;7827;53.594;9.938;2022-12-16T13:27:43;56.87;;;36.50;;
15451;SDS011;7827;53.594;9.938;2022-12-16T13:30:38;59.77;;;36.57;;
15451;SDS011;7827;53.594;9.938;2022-12-16T13:33:28;57.87;;;36.90;;
15451;SDS011;7827;53.594;9.938;2022-12-16T13:36:15;59.57;;;37.63;;
15451;SDS011;7827;53.594;9.938;2022-12-16T13:39:16;60.37;;;37.00;;
15451;SDS011;7827;53.594;9.938;2022-12-16T13:45:38;57.37;;;35.63;;
15451;SDS011;7827;53.594;9.938;2022-12-16T13:48:31;59.97;;;36.97;;
15451;SDS011;7827;53.594;9.938;2022-12-16T13:54:45;56.93;;;37.70;;
15451;SDS011;7827;53.594;9.938;2022-12-16T13:57:38;63.63;;;38.13;;
15451;SDS011;7827;53.594;9.938;2022-12-16T14:00:28;62.90;;;37.13;;
15451;SDS011;7827;53.594;9.938;2022-12-16T14:03:22;58.37;;;38.57;;
15451;SDS011;7827;53.594;9.938;2022-12-16T14:06:24;60.07;;;36.97;;
15451;SDS011;7827;53.594;9.938;2022-12-16T14:09:29;63.73;;;39.20;;
15451;SDS011;7827;53.594;9.938;2022-12-16T14:12:40;57.07;;;36.00;;
15451;SDS011;7827;53.594;9.938;2022-12-16T14:15:40;60.70;;;38.60;;
15451;SDS011;7827;53.594;9.938;2022-12-16T14:18:44;63.87;;;39.30;;
15451;SDS011;7827;53.594;9.938;2022-12-16T14:21:46;57.70;;;36.87;;
15451;SDS011;7827;53.594;9.938;2022-12-16T14:24:38;59.90;;;37.53;;
15451;SDS011;7827;53.594;9.938;2022-12-16T14:27:24;63.53;;;38.70;;
15451;SDS011;7827;53.594;9.938;2022-12-16T14:30:16;60.63;;;39.40;;
15451;SDS011;7827;53.594;9.938;2022-12-16T14:33:15;67.77;;;40.27;;
15451;SDS011;7827;53.594;9.938;2022-12-16T14:36:18;64.33;;;38.67;;
15451;SDS011;7827;53.594;9.938;2022-12-16T14:39:08;59.67;;;37.03;;
15451;SDS011;7827;53.594;9.938;2022-12-16T14:41:57;64.57;;;39.27;;
15451;SDS011;7827;53.594;9.938;2022-12-16T14:44:43;61.20;;;38.87;;
15451;SDS011;7827;53.594;9.938;2022-12-16T14:47:31;64.13;;;40.10;;
15451;SDS011;7827;53.594;9.938;2022-12-16T14:50:18;66.23;;;40.07;;
15451;SDS011;7827;53.594;9.938;2022-12-16T14:53:15;69.03;;;43.47;;
15451;SDS011;7827;53.594;9.938;2022-12-16T14:59:14;68.43;;;43.60;;
15451;SDS011;7827;53.594;9.938;2022-12-16T15:02:10;73.37;;;43.47;;
15451;SDS011;7827;53.594;9.938;2022-12-16T15:05:10;69.43;;;42.53;;
15451;SDS011;7827;53.594;9.938;2022-12-16T15:07:57;70.17;;;44.00;;
15451;SDS011;7827;53.594;9.938;2022-12-16T15:10:45;73.93;;;43.47;;
15451;SDS011;7827;53.594;9.938;2022-12-16T15:13:32;72.47;;;45.70;;
15451;SDS011;7827;53.594;9.938;2022-12-16T15:16:29;70.40;;;44.90;;
15451;SDS011;7827;53.594;9.938;2022-12-16T15:19:19;75.87;;;44.33;;
15451;SDS011;7827;53.594;9.938;2022-12-16T15:22:10;69.90;;;44.13;;
15451;SDS011;7827;53.594;9.938;2022-12-16T15:25:00;70.23;;;43.27;;
15451;SDS011;7827;53.594;9.938;2022-12-16T15:27:53;76.20;;;46.00;;
15451;SDS011;7827;53.594;9.938;2022-12-16T15:30:41;72.27;;;44.73;;
15451;SDS011;7827;53.594;9.938;2022-12-16T15:33:30;74.07;;;43.50;;
15451;SDS011;7827;53.594;9.938;2022-12-16T15:36:22;71.77;;;44.40;;
15451;SDS011;7827;53.594;9.938;2022-12-16T15:39:16;74.30;;;44.27;;
15451;SDS011;7827;53.594;9.938;2022-12-16T15:42:15;67.00;;;43.00;;
15451;SDS011;7827;53.594;9.938;2022-12-16T15:45:24;71.33;;;44.93;;
15451;SDS011;7827;53.594;9.938;2022-12-16T15:48:17;67.73;;;43.53;;
15451;SDS011;7827;53.594;9.938;2022-12-16T15:51:20;74.33;;;43.40;;
15451;SDS011;7827;53.594;9.938;2022-12-16T15:54:13;70.53;;;44.60;;
15451;SDS011;7827;53.594;9.938;2022-12-16T16:00:18;75.80;;;45.17;;
15451;SDS011;7827;53.594;9.938;2022-12-16T16:03:18;71.00;;;43.50;;
15451;SDS011;7827;53.594;9.938;2022-12-16T16:06:13;77.13;;;44.97;;
15451;SDS011;7827;53.594;9.938;2022-12-16T16:09:11;71.17;;;45.00;;
15451;SDS011;7827;53.594;9.938;2022-12-16T16:11:58;77.07;;;45.63;;
15451;SDS011;7827;53.594;9.938;2022-12-16T16:14:44;75.53;;;44.93;;
15451;SDS011;7827;53.594;9.938;2022-12-16T16:17:31;73.87;;;44.03;;
15451;SDS011;7827;53.594;9.938;2022-12-16T16:20:17;73.87;;;46.60;;
15451;SDS011;7827;53.594;9.938;2022-12-16T16:23:03;70.47;;;44.73;;
15451;SDS011;7827;53.594;9.938;2022-12-16T16:25:49;73.13;;;44.93;;
15451;SDS011;7827;53.594;9.938;2022-12-16T16:28:35;74.97;;;45.50;;
15451;SDS011;7827;53.594;9.938;2022-12-16T16:31:21;81.13;;;45.63;;
15451;SDS011;7827;53.594;9.938;2022-12-16T16:34:09;69.57;;;43.10;;
15451;SDS011;7827;53.594;9.938;2022-12-16T16:37:06;74.00;;;46.90;;
15451;SDS011;7827;53.594;9.938;2022-12-16T16:39:58;68.33;;;45.30;;
15451;SDS011;7827;53.594;9.938;2022-12-16T16:42:45;71.47;;;45.07;;
15451;SDS011;7827;53.594;9.938;2022-12-16T16:45:31;78.47;;;46.53;;
15451;SDS011;7827;53.594;9.938;2022-12-16T16:48:16;78.60;;;46.10;;
15451;SDS011;7827;53.594;9.938;2022-12-16T16:51:04;73.43;;;44.60;;